BOX1232 ZSPD-EDDP
Flight info
| Callsign | BOX1232 |
|---|---|
| Flight time | N/A |
| Altitude | 25600 |
| Route | PIK81D PIKAS G330 PIMOL A593 ABTUB/K0904S0840 A593 DALIM W157 BEKDO/K0885S0810 W157 VYK G212 SOTMU/K0898S0840 B339 ASILA A575 UPREK W28 LAGEB W66 NUKTI B215 FKG/K0904S0920 B215 KABDO W119 GOBOK A343 RULAD/K0907F300 M610 ARBOL Z621 GENDI N147 OTBOR/N0491F300 A480 TIMGA B476 OGLID/N0488F320 B476 METKA L88 NIJAT N644 ADEKI DCT BADIR DCT LAGAS DCT NOLGA UG261 TBN UM11 CRM UL746 ODERO DCT DINRO DCT RIVOS DCT URELA DCT DOKUD DCT KARIL/N0474F340 DCT TAKOS DCT OMIFU DCT ODLIV DCT BEFRE DCT IVQOQ/N0477F300 T951 YAWOY YAWOY1V |
| Aircraft | B77L/H-SDE2E3GHIJ4J5M1P2RWXY/LB1D1 |
Departure
| Time | 2026-05-05 21:50 |
|---|---|
| Airport | Shanghai Pudong International Airport (ZSPD) |
Arrival
| Time | N/A |
|---|---|
| Airport | Leipzig/Halle Airport (EDDP) |
| Time | Latitude | Longitude | Altitude | Speed | Heading |
|---|---|---|---|---|---|
| 2026-05-05 21:20 | 31.16000 | 121.79075 | 27 ft | 0 kts | 72° |
| 2026-05-05 21:41 | 31.15994 | 121.79055 | 27 ft | 4 kts | 72° |
| 2026-05-05 21:41 | 31.15987 | 121.79031 | 27 ft | 4 kts | 74° |
| 2026-05-05 21:42 | 31.15985 | 121.79001 | 27 ft | 4 kts | 109° |
| 2026-05-05 21:42 | 31.15999 | 121.78977 | 26 ft | 4 kts | 150° |
| 2026-05-05 21:42 | 31.16022 | 121.78966 | 26 ft | 4 kts | 162° |
| 2026-05-05 21:42 | 31.16045 | 121.78957 | 27 ft | 1 kts | 162° |
| 2026-05-05 21:43 | 31.16046 | 121.78957 | 27 ft | 0 kts | 162° |
| 2026-05-05 21:47 | 31.16023 | 121.78956 | 27 ft | 10 kts | 196° |
| 2026-05-05 21:48 | 31.16010 | 121.78948 | 26 ft | 6 kts | 214° |
| 2026-05-05 21:48 | 31.16010 | 121.78888 | 27 ft | 9 kts | 309° |
| 2026-05-05 21:48 | 31.16064 | 121.78843 | 27 ft | 10 kts | 339° |
| 2026-05-05 21:48 | 31.16128 | 121.78814 | 27 ft | 10 kts | 326° |
| 2026-05-05 21:49 | 31.16140 | 121.78742 | 27 ft | 10 kts | 259° |
| 2026-05-05 21:49 | 31.16125 | 121.78664 | 27 ft | 10 kts | 243° |
| 2026-05-05 21:49 | 31.16018 | 121.78642 | 30 ft | 27 kts | 163° |
| 2026-05-05 21:49 | 31.15723 | 121.78755 | 27 ft | 77 kts | 162° |
| 2026-05-05 21:50 | 31.14967 | 121.79041 | 29 ft | 150 kts | 162° |
| 2026-05-05 21:50 | 31.13796 | 121.79481 | 29 ft | 205 kts | 162° |
| 2026-05-05 21:50 | 31.12369 | 121.80013 | 457 ft | 216 kts | 163° |
| 2026-05-05 21:50 | 31.10923 | 121.80507 | 1143 ft | 222 kts | 165° |
| 2026-05-05 21:51 | 31.09414 | 121.80982 | 1844 ft | 228 kts | 164° |
| 2026-05-05 21:51 | 31.07856 | 121.81489 | 2318 ft | 237 kts | 164° |
| 2026-05-05 21:51 | 31.06248 | 121.82012 | 2848 ft | 243 kts | 164° |
| 2026-05-05 21:51 | 31.04600 | 121.82546 | 3368 ft | 251 kts | 164° |
| 2026-05-05 21:52 | 31.01136 | 121.83239 | 4405 ft | 259 kts | 193° |
| 2026-05-05 21:52 | 30.99532 | 121.82323 | 4962 ft | 261 kts | 224° |
| 2026-05-05 21:52 | 30.98499 | 121.80594 | 5569 ft | 262 kts | 250° |
| 2026-05-05 21:53 | 30.97945 | 121.78572 | 5935 ft | 268 kts | 252° |
| 2026-05-05 21:53 | 30.97383 | 121.76498 | 5908 ft | 270 kts | 252° |
| 2026-05-05 21:53 | 30.96864 | 121.74604 | 5933 ft | 266 kts | 252° |
| 2026-05-05 21:53 | 30.96354 | 121.72706 | 6037 ft | 266 kts | 257° |
| 2026-05-05 21:54 | 30.96301 | 121.70597 | 6334 ft | 270 kts | 283° |
| 2026-05-05 21:54 | 30.96761 | 121.68494 | 6775 ft | 276 kts | 283° |
| 2026-05-05 21:54 | 30.97151 | 121.66473 | 7359 ft | 277 kts | 282° |
| 2026-05-05 21:54 | 30.97545 | 121.64338 | 7997 ft | 278 kts | 282° |
| 2026-05-05 21:55 | 30.97943 | 121.62173 | 8592 ft | 280 kts | 282° |
| 2026-05-05 21:55 | 30.98354 | 121.59940 | 9178 ft | 283 kts | 282° |
| 2026-05-05 21:55 | 30.98763 | 121.57719 | 9762 ft | 285 kts | 282° |
| 2026-05-05 21:55 | 30.99182 | 121.55447 | 10295 ft | 289 kts | 282° |
| 2026-05-05 21:56 | 30.99612 | 121.53108 | 10491 ft | 308 kts | 282° |
| 2026-05-05 21:56 | 31.00072 | 121.50609 | 10659 ft | 326 kts | 282° |
| 2026-05-05 21:56 | 31.00562 | 121.47936 | 10828 ft | 346 kts | 282° |
| 2026-05-05 21:56 | 31.01077 | 121.45134 | 11175 ft | 359 kts | 282° |
| 2026-05-05 21:57 | 31.01607 | 121.42253 | 11686 ft | 367 kts | 282° |
| 2026-05-05 21:57 | 31.02139 | 121.39364 | 12302 ft | 371 kts | 282° |
| 2026-05-05 21:57 | 31.02682 | 121.36405 | 12982 ft | 373 kts | 282° |
| 2026-05-05 21:57 | 31.03225 | 121.33442 | 13621 ft | 376 kts | 282° |
| 2026-05-05 21:58 | 31.03774 | 121.30447 | 14233 ft | 379 kts | 282° |
| 2026-05-05 21:58 | 31.04327 | 121.27419 | 14817 ft | 383 kts | 282° |
| 2026-05-05 21:58 | 31.04884 | 121.24374 | 15396 ft | 386 kts | 282° |
| 2026-05-05 21:58 | 31.05442 | 121.21313 | 15971 ft | 389 kts | 282° |
| 2026-05-05 21:59 | 31.06058 | 121.18225 | 16482 ft | 388 kts | 288° |
| 2026-05-05 21:59 | 31.07360 | 121.15454 | 16769 ft | 397 kts | 312° |
| 2026-05-05 21:59 | 31.09513 | 121.13447 | 17287 ft | 399 kts | 332° |
| 2026-05-05 21:59 | 31.12103 | 121.12290 | 17877 ft | 399 kts | 348° |
| 2026-05-05 22:00 | 31.14863 | 121.11993 | 18339 ft | 401 kts | 359° |
| 2026-05-05 22:00 | 31.17680 | 121.11915 | 18768 ft | 407 kts | 358° |
| 2026-05-05 22:00 | 31.20505 | 121.11813 | 19264 ft | 409 kts | 358° |
| 2026-05-05 22:00 | 31.23345 | 121.11677 | 19772 ft | 411 kts | 357° |
| 2026-05-05 22:01 | 31.26219 | 121.11519 | 20264 ft | 414 kts | 357° |
| 2026-05-05 22:01 | 31.29074 | 121.11355 | 20718 ft | 417 kts | 357° |
| 2026-05-05 22:01 | 31.32020 | 121.11183 | 21155 ft | 420 kts | 357° |
| 2026-05-05 22:01 | 31.34949 | 121.11014 | 21629 ft | 423 kts | 357° |
| 2026-05-05 22:02 | 31.37895 | 121.11019 | 22044 ft | 426 kts | 3° |
| 2026-05-05 22:02 | 31.40865 | 121.11274 | 22465 ft | 428 kts | 5° |
| 2026-05-05 22:02 | 31.43838 | 121.11520 | 22868 ft | 427 kts | 0° |
| 2026-05-05 22:02 | 31.46746 | 121.11019 | 23069 ft | 434 kts | 339° |
| 2026-05-05 22:03 | 31.49508 | 121.09489 | 23367 ft | 434 kts | 333° |
| 2026-05-05 22:03 | 31.52225 | 121.07915 | 23720 ft | 438 kts | 334° |
| 2026-05-05 22:03 | 31.54992 | 121.06382 | 24149 ft | 440 kts | 335° |
| 2026-05-05 22:03 | 31.57769 | 121.04882 | 24575 ft | 441 kts | 335° |
| 2026-05-05 22:04 | 31.60571 | 121.03387 | 24970 ft | 444 kts | 335° |
| 2026-05-05 22:04 | 31.63395 | 121.01886 | 25323 ft | 446 kts | 335° |
| 2026-05-05 22:04 | 31.66235 | 121.00378 | 25685 ft | 449 kts | 335° |
| 2026-05-05 22:04 | 31.69086 | 120.98861 | 26038 ft | 452 kts | 335° |
| 2026-05-05 22:05 | 31.71955 | 120.97333 | 26394 ft | 454 kts | 335° |
| 2026-05-05 22:05 | 31.74829 | 120.95800 | 26747 ft | 456 kts | 335° |
| 2026-05-05 22:05 | 31.77731 | 120.94250 | 27078 ft | 458 kts | 335° |
| 2026-05-05 22:05 | 31.80640 | 120.92694 | 27411 ft | 461 kts | 335° |
| 2026-05-05 22:06 | 31.83561 | 120.91132 | 27725 ft | 463 kts | 335° |
| 2026-05-05 22:06 | 31.86499 | 120.89559 | 28049 ft | 465 kts | 335° |
| 2026-05-05 22:06 | 31.89458 | 120.87973 | 28354 ft | 467 kts | 335° |
| 2026-05-05 22:06 | 31.92420 | 120.86385 | 28645 ft | 469 kts | 335° |
| 2026-05-05 22:07 | 31.95390 | 120.84793 | 28924 ft | 471 kts | 335° |
| 2026-05-05 22:07 | 31.98382 | 120.83184 | 29183 ft | 473 kts | 335° |
| 2026-05-05 22:07 | 32.01378 | 120.81571 | 29450 ft | 475 kts | 335° |
| 2026-05-05 22:07 | 32.04354 | 120.79967 | 29705 ft | 476 kts | 335° |
| 2026-05-05 22:08 | 32.07408 | 120.78320 | 29932 ft | 478 kts | 335° |
| 2026-05-05 22:08 | 32.13258 | 120.74743 | 29992 ft | 476 kts | 320° |
| 2026-05-05 22:08 | 32.15483 | 120.71871 | 30022 ft | 475 kts | 302° |
| 2026-05-05 22:09 | 32.16947 | 120.68331 | 29997 ft | 476 kts | 288° |
| 2026-05-05 22:09 | 32.17627 | 120.64585 | 30006 ft | 475 kts | 275° |
| 2026-05-05 22:09 | 32.17900 | 120.60693 | 29988 ft | 477 kts | 274° |
| 2026-05-05 22:10 | 32.18429 | 120.52883 | 29999 ft | 478 kts | 275° |
| 2026-05-05 22:10 | 32.19042 | 120.45010 | 30014 ft | 479 kts | 275° |
| 2026-05-05 22:11 | 32.19681 | 120.37251 | 29999 ft | 478 kts | 275° |
| 2026-05-05 22:11 | 32.20317 | 120.29446 | 29999 ft | 477 kts | 275° |
| 2026-05-05 22:12 | 32.20951 | 120.21665 | 30000 ft | 476 kts | 275° |
| 2026-05-05 22:12 | 32.21583 | 120.13947 | 29999 ft | 475 kts | 275° |
| 2026-05-05 22:13 | 32.22213 | 120.06195 | 30001 ft | 474 kts | 275° |
| 2026-05-05 22:13 | 32.22835 | 119.98469 | 30000 ft | 474 kts | 275° |
| 2026-05-05 22:14 | 32.23455 | 119.90705 | 30001 ft | 474 kts | 275° |
| 2026-05-05 22:14 | 32.24069 | 119.82960 | 30001 ft | 475 kts | 275° |
| 2026-05-05 22:14 | 32.24630 | 119.79151 | 29984 ft | 472 kts | 289° |
| 2026-05-05 22:15 | 32.26083 | 119.75710 | 30017 ft | 471 kts | 306° |
| 2026-05-05 22:15 | 32.30943 | 119.70585 | 29983 ft | 472 kts | 326° |
| 2026-05-05 22:16 | 32.35481 | 119.66881 | 29995 ft | 475 kts | 325° |
| 2026-05-05 22:16 | 32.40884 | 119.62326 | 29998 ft | 478 kts | 324° |
| 2026-05-05 22:17 | 32.46291 | 119.57697 | 30002 ft | 480 kts | 324° |
| 2026-05-05 22:17 | 32.51691 | 119.53048 | 30000 ft | 479 kts | 324° |
| 2026-05-05 22:18 | 32.57066 | 119.48398 | 29998 ft | 478 kts | 324° |
| 2026-05-05 22:18 | 32.62423 | 119.43758 | 29997 ft | 476 kts | 324° |
| 2026-05-05 22:19 | 32.67723 | 119.39162 | 30000 ft | 475 kts | 324° |
| 2026-05-05 22:19 | 32.73065 | 119.34524 | 30002 ft | 474 kts | 323° |
| 2026-05-05 22:20 | 32.78355 | 119.29923 | 30002 ft | 474 kts | 323° |
| 2026-05-05 22:20 | 32.83665 | 119.25299 | 30002 ft | 474 kts | 323° |
| 2026-05-05 22:21 | 32.88993 | 119.20651 | 30003 ft | 475 kts | 323° |
| 2026-05-05 22:21 | 32.94329 | 119.15991 | 30002 ft | 475 kts | 323° |
| 2026-05-05 22:22 | 32.99582 | 119.11439 | 29399 ft | 474 kts | 324° |
| 2026-05-05 22:22 | 33.02186 | 119.09191 | 29660 ft | 454 kts | 324° |
| 2026-05-05 22:22 | 33.04698 | 119.07021 | 29763 ft | 448 kts | 324° |
| 2026-05-05 22:23 | 33.09776 | 119.02624 | 29880 ft | 455 kts | 324° |
| 2026-05-05 22:23 | 33.14922 | 118.98156 | 29915 ft | 459 kts | 324° |
| 2026-05-05 22:24 | 33.20072 | 118.93680 | 29913 ft | 459 kts | 324° |
| 2026-05-05 22:24 | 33.25246 | 118.89187 | 29917 ft | 459 kts | 324° |
| 2026-05-05 22:25 | 33.30403 | 118.84706 | 29918 ft | 458 kts | 324° |
| 2026-05-05 22:25 | 33.35563 | 118.80245 | 29918 ft | 457 kts | 324° |
| 2026-05-05 22:26 | 33.40697 | 118.75806 | 29914 ft | 456 kts | 324° |
| 2026-05-05 22:26 | 33.45846 | 118.71344 | 29925 ft | 456 kts | 324° |
| 2026-05-05 22:27 | 33.50983 | 118.66894 | 29915 ft | 456 kts | 324° |
| 2026-05-05 22:27 | 33.56123 | 118.62444 | 29908 ft | 456 kts | 323° |
| 2026-05-05 22:28 | 33.61275 | 118.57977 | 29910 ft | 457 kts | 323° |
| 2026-05-05 22:28 | 33.66431 | 118.53497 | 29910 ft | 458 kts | 323° |
| 2026-05-05 22:29 | 33.71587 | 118.49010 | 29908 ft | 458 kts | 323° |
| 2026-05-05 22:29 | 33.76751 | 118.44508 | 29916 ft | 459 kts | 323° |
| 2026-05-05 22:30 | 33.81925 | 118.39991 | 29898 ft | 459 kts | 323° |
| 2026-05-05 22:30 | 33.87097 | 118.35469 | 29900 ft | 459 kts | 323° |
| 2026-05-05 22:31 | 33.92267 | 118.30940 | 29908 ft | 459 kts | 323° |
| 2026-05-05 22:31 | 33.97436 | 118.26408 | 29906 ft | 459 kts | 323° |
| 2026-05-05 22:32 | 34.02614 | 118.21890 | 29897 ft | 459 kts | 323° |
| 2026-05-05 22:32 | 34.07791 | 118.17373 | 29905 ft | 459 kts | 323° |
| 2026-05-05 22:33 | 34.12957 | 118.12850 | 29898 ft | 459 kts | 322° |
| 2026-05-05 22:33 | 34.18124 | 118.08313 | 29900 ft | 459 kts | 322° |
| 2026-05-05 22:34 | 34.23254 | 118.03808 | 29888 ft | 458 kts | 323° |
| 2026-05-05 22:34 | 34.28830 | 117.99954 | 29894 ft | 461 kts | 333° |
| 2026-05-05 22:35 | 34.34844 | 117.97190 | 29907 ft | 464 kts | 340° |
| 2026-05-05 22:35 | 34.41059 | 117.95019 | 29893 ft | 465 kts | 341° |
| 2026-05-05 22:36 | 34.47234 | 117.92865 | 29894 ft | 465 kts | 340° |
| 2026-05-05 22:36 | 34.53435 | 117.90664 | 29896 ft | 464 kts | 340° |
| 2026-05-05 22:37 | 34.59639 | 117.88442 | 29898 ft | 464 kts | 340° |
| 2026-05-05 22:37 | 34.65832 | 117.86221 | 29893 ft | 464 kts | 340° |
| 2026-05-05 22:38 | 34.72031 | 117.83995 | 29893 ft | 464 kts | 340° |
| 2026-05-05 22:38 | 34.78226 | 117.81768 | 29891 ft | 464 kts | 340° |
| 2026-05-05 22:39 | 34.84413 | 117.79549 | 29910 ft | 464 kts | 340° |
| 2026-05-05 22:39 | 34.90604 | 117.77322 | 29892 ft | 464 kts | 340° |
| 2026-05-05 22:40 | 34.96792 | 117.75063 | 29894 ft | 464 kts | 340° |
| 2026-05-05 22:40 | 35.02976 | 117.72806 | 29893 ft | 464 kts | 340° |
| 2026-05-05 22:41 | 35.09153 | 117.70551 | 29901 ft | 463 kts | 340° |
| 2026-05-05 22:41 | 35.15335 | 117.68283 | 29886 ft | 464 kts | 340° |
| 2026-05-05 22:42 | 35.21509 | 117.66013 | 29880 ft | 463 kts | 340° |
| 2026-05-05 22:42 | 35.27682 | 117.63740 | 29878 ft | 463 kts | 340° |
| 2026-05-05 22:43 | 35.33856 | 117.61463 | 29898 ft | 463 kts | 339° |
| 2026-05-05 22:43 | 35.40000 | 117.59194 | 29874 ft | 464 kts | 339° |
| 2026-05-05 22:44 | 35.46176 | 117.56909 | 29861 ft | 464 kts | 339° |
| 2026-05-05 22:44 | 35.52401 | 117.54602 | 29872 ft | 464 kts | 339° |
| 2026-05-05 22:45 | 35.58520 | 117.52331 | 29865 ft | 464 kts | 339° |
| 2026-05-05 22:45 | 35.64709 | 117.50031 | 29863 ft | 464 kts | 339° |
| 2026-05-05 22:46 | 35.70880 | 117.47733 | 29858 ft | 463 kts | 339° |
| 2026-05-05 22:46 | 35.77056 | 117.45429 | 29852 ft | 463 kts | 339° |
| 2026-05-05 22:47 | 35.83217 | 117.43128 | 29866 ft | 463 kts | 339° |
| 2026-05-05 22:47 | 35.89402 | 117.40813 | 29860 ft | 464 kts | 339° |
| 2026-05-05 22:48 | 35.95558 | 117.38506 | 29840 ft | 464 kts | 339° |
| 2026-05-05 22:48 | 36.01731 | 117.36192 | 29840 ft | 464 kts | 339° |
| 2026-05-05 22:49 | 36.07916 | 117.33902 | 29853 ft | 464 kts | 339° |
| 2026-05-05 22:49 | 36.14101 | 117.31616 | 29833 ft | 464 kts | 339° |
| 2026-05-05 22:50 | 36.20276 | 117.29325 | 29836 ft | 463 kts | 339° |
| 2026-05-05 22:50 | 36.26448 | 117.27029 | 29834 ft | 463 kts | 339° |
| 2026-05-05 22:51 | 36.32616 | 117.24730 | 29847 ft | 463 kts | 339° |
| 2026-05-05 22:51 | 36.38779 | 117.22431 | 29827 ft | 462 kts | 339° |
| 2026-05-05 22:52 | 36.44816 | 117.19815 | 29814 ft | 457 kts | 333° |
| 2026-05-05 22:52 | 36.50672 | 117.16730 | 29817 ft | 457 kts | 333° |
| 2026-05-05 22:53 | 36.56528 | 117.13656 | 29823 ft | 457 kts | 333° |
| 2026-05-05 22:53 | 36.62391 | 117.10594 | 29789 ft | 457 kts | 333° |
| 2026-05-05 22:54 | 36.68254 | 117.07535 | 29782 ft | 457 kts | 333° |
| 2026-05-05 22:54 | 36.74108 | 117.04475 | 29775 ft | 457 kts | 333° |
| 2026-05-05 22:55 | 36.79976 | 117.01403 | 29776 ft | 457 kts | 333° |
| 2026-05-05 22:55 | 36.85797 | 116.98349 | 29770 ft | 458 kts | 333° |
| 2026-05-05 22:56 | 36.91666 | 116.95265 | 29760 ft | 458 kts | 333° |
| 2026-05-05 22:56 | 36.97536 | 116.92175 | 29766 ft | 458 kts | 333° |
| 2026-05-05 22:57 | 37.03401 | 116.89083 | 29752 ft | 458 kts | 333° |
| 2026-05-05 22:57 | 37.09279 | 116.85979 | 29757 ft | 458 kts | 332° |
| 2026-05-05 22:58 | 37.15147 | 116.82874 | 29748 ft | 458 kts | 332° |
| 2026-05-05 22:58 | 37.21015 | 116.79776 | 29749 ft | 458 kts | 334° |
| 2026-05-05 22:59 | 37.27113 | 116.77300 | 29740 ft | 461 kts | 339° |
| 2026-05-05 22:59 | 37.33257 | 116.75027 | 29755 ft | 461 kts | 338° |
| 2026-05-05 23:00 | 37.42470 | 116.71564 | 29740 ft | 460 kts | 338° |
| 2026-05-05 23:00 | 37.48599 | 116.69241 | 29738 ft | 460 kts | 338° |
| 2026-05-05 23:01 | 37.54735 | 116.66910 | 29753 ft | 460 kts | 338° |
| 2026-05-05 23:01 | 37.60822 | 116.64595 | 29730 ft | 461 kts | 338° |
| 2026-05-05 23:02 | 37.66960 | 116.62257 | 29723 ft | 461 kts | 338° |
| 2026-05-05 23:02 | 37.73101 | 116.59914 | 29740 ft | 461 kts | 338° |
| 2026-05-05 23:03 | 37.79237 | 116.57568 | 29745 ft | 461 kts | 338° |
| 2026-05-05 23:03 | 37.85379 | 116.55215 | 29730 ft | 461 kts | 337° |
| 2026-05-05 23:04 | 37.90528 | 116.53241 | 29720 ft | 461 kts | 337° |
| 2026-05-05 23:04 | 37.96496 | 116.50450 | 29717 ft | 453 kts | 329° |
| 2026-05-05 23:05 | 38.01943 | 116.46544 | 29716 ft | 447 kts | 321° |
| 2026-05-05 23:05 | 38.06953 | 116.41895 | 29722 ft | 446 kts | 320° |
| 2026-05-05 23:06 | 38.11949 | 116.37302 | 29714 ft | 447 kts | 320° |
| 2026-05-05 23:06 | 38.17019 | 116.32626 | 29715 ft | 447 kts | 320° |
| 2026-05-05 23:07 | 38.22049 | 116.28053 | 29704 ft | 448 kts | 325° |
| 2026-05-05 23:07 | 38.24940 | 116.26529 | 29736 ft | 459 kts | 341° |
| 2026-05-05 23:07 | 38.28141 | 116.25899 | 29736 ft | 470 kts | 351° |
| 2026-05-05 23:08 | 38.31438 | 116.26061 | 29704 ft | 484 kts | 3° |
| 2026-05-05 23:08 | 38.34742 | 116.27089 | 29716 ft | 491 kts | 8° |
| 2026-05-05 23:08 | 38.41326 | 116.29575 | 29715 ft | 494 kts | 9° |
| 2026-05-05 23:09 | 38.47927 | 116.31972 | 29744 ft | 493 kts | 8° |
| 2026-05-05 23:09 | 38.54558 | 116.34264 | 29718 ft | 493 kts | 7° |
| 2026-05-05 23:10 | 38.61174 | 116.36542 | 29711 ft | 492 kts | 7° |
| 2026-05-05 23:10 | 38.67786 | 116.38840 | 29739 ft | 491 kts | 7° |
| 2026-05-05 23:11 | 38.74370 | 116.41162 | 29718 ft | 491 kts | 7° |
| 2026-05-05 23:11 | 38.80952 | 116.43492 | 29713 ft | 490 kts | 7° |
| 2026-05-05 23:12 | 38.87526 | 116.45820 | 29734 ft | 490 kts | 7° |
| 2026-05-05 23:12 | 38.94104 | 116.48152 | 29719 ft | 491 kts | 7° |
| 2026-05-05 23:13 | 39.00685 | 116.50489 | 29724 ft | 491 kts | 7° |
| 2026-05-05 23:13 | 39.07266 | 116.52832 | 29753 ft | 492 kts | 7° |
| 2026-05-05 23:14 | 39.13872 | 116.55187 | 29737 ft | 492 kts | 7° |
| 2026-05-05 23:14 | 39.20474 | 116.57608 | 29721 ft | 496 kts | 11° |
| 2026-05-05 23:15 | 39.27008 | 116.60581 | 29735 ft | 499 kts | 12° |
| 2026-05-05 23:15 | 39.33526 | 116.63669 | 29738 ft | 499 kts | 12° |
| 2026-05-05 23:16 | 39.40060 | 116.66739 | 29726 ft | 500 kts | 12° |
| 2026-05-05 23:16 | 39.46599 | 116.69788 | 29735 ft | 500 kts | 12° |
| 2026-05-05 23:17 | 39.53145 | 116.72841 | 29730 ft | 500 kts | 12° |
| 2026-05-05 23:17 | 39.59688 | 116.75902 | 29734 ft | 500 kts | 12° |
| 2026-05-05 23:18 | 39.66230 | 116.78969 | 29747 ft | 500 kts | 12° |
| 2026-05-05 23:18 | 39.72776 | 116.82045 | 29749 ft | 500 kts | 12° |
| 2026-05-05 23:19 | 39.79386 | 116.84374 | 29777 ft | 483 kts | 358° |
| 2026-05-05 23:19 | 39.85971 | 116.84360 | 29745 ft | 465 kts | 343° |
| 2026-05-05 23:20 | 39.92340 | 116.83000 | 29751 ft | 464 kts | 342° |
| 2026-05-05 23:20 | 39.98717 | 116.81671 | 29752 ft | 465 kts | 343° |
| 2026-05-05 23:21 | 40.05113 | 116.80385 | 29756 ft | 466 kts | 343° |
| 2026-05-05 23:21 | 40.11517 | 116.79109 | 29751 ft | 466 kts | 343° |
| 2026-05-05 23:22 | 40.17940 | 116.77825 | 29750 ft | 466 kts | 343° |
| 2026-05-05 23:22 | 40.24310 | 116.76547 | 29754 ft | 467 kts | 343° |
| 2026-05-05 23:23 | 40.30717 | 116.75259 | 29756 ft | 466 kts | 343° |
| 2026-05-05 23:23 | 40.36940 | 116.73314 | 29772 ft | 455 kts | 335° |
| 2026-05-05 23:24 | 40.42989 | 116.70816 | 29812 ft | 456 kts | 335° |
| 2026-05-05 23:24 | 40.49055 | 116.68343 | 29781 ft | 457 kts | 335° |
| 2026-05-05 23:25 | 40.55134 | 116.65886 | 29782 ft | 457 kts | 335° |
| 2026-05-05 23:25 | 40.61222 | 116.63428 | 29792 ft | 457 kts | 335° |
| 2026-05-05 23:26 | 40.67301 | 116.60966 | 29796 ft | 457 kts | 335° |
| 2026-05-05 23:26 | 40.73380 | 116.58499 | 29791 ft | 456 kts | 335° |
| 2026-05-05 23:27 | 40.79604 | 116.56539 | 29787 ft | 465 kts | 343° |
| 2026-05-05 23:27 | 40.86064 | 116.55847 | 29826 ft | 472 kts | 347° |
| 2026-05-05 23:28 | 40.92653 | 116.55284 | 29820 ft | 474 kts | 347° |
| 2026-05-05 23:28 | 40.99262 | 116.54673 | 29808 ft | 476 kts | 347° |
| 2026-05-05 23:29 | 41.05873 | 116.54045 | 29851 ft | 478 kts | 347° |
| 2026-05-05 23:29 | 41.12519 | 116.53413 | 29825 ft | 479 kts | 347° |
| 2026-05-05 23:30 | 41.19118 | 116.52770 | 29832 ft | 476 kts | 345° |
| 2026-05-05 23:30 | 41.22330 | 116.52042 | 29836 ft | 465 kts | 336° |
| 2026-05-05 23:30 | 41.25395 | 116.50767 | 29868 ft | 456 kts | 330° |
| 2026-05-05 23:31 | 41.30975 | 116.47101 | 29882 ft | 444 kts | 321° |
| 2026-05-05 23:31 | 41.36268 | 116.42847 | 29869 ft | 445 kts | 321° |
| 2026-05-05 23:32 | 41.41594 | 116.38598 | 29886 ft | 446 kts | 321° |
| 2026-05-05 23:32 | 41.46888 | 116.34394 | 29902 ft | 447 kts | 321° |
| 2026-05-05 23:33 | 41.52281 | 116.30115 | 29907 ft | 447 kts | 321° |
| 2026-05-05 23:33 | 41.57632 | 116.25865 | 29910 ft | 447 kts | 321° |
| 2026-05-05 23:34 | 41.62931 | 116.21645 | 29930 ft | 447 kts | 321° |
| 2026-05-05 23:34 | 41.68313 | 116.17350 | 29945 ft | 447 kts | 321° |
| 2026-05-05 23:35 | 41.73647 | 116.13085 | 29976 ft | 447 kts | 320° |
| 2026-05-05 23:35 | 41.78988 | 116.08807 | 29947 ft | 446 kts | 320° |
| 2026-05-05 23:36 | 41.84246 | 116.04586 | 29934 ft | 445 kts | 320° |
| 2026-05-05 23:36 | 41.89548 | 116.00324 | 29942 ft | 444 kts | 320° |
| 2026-05-05 23:37 | 41.94446 | 115.95514 | 29961 ft | 428 kts | 308° |
| 2026-05-05 23:37 | 41.98231 | 115.89470 | 29971 ft | 419 kts | 298° |
| 2026-05-05 23:38 | 42.01027 | 115.82704 | 29966 ft | 414 kts | 293° |
| 2026-05-05 23:38 | 42.03749 | 115.75873 | 29953 ft | 414 kts | 293° |
| 2026-05-05 23:39 | 42.06494 | 115.69038 | 29956 ft | 415 kts | 294° |
| 2026-05-05 23:39 | 42.09244 | 115.62206 | 29963 ft | 415 kts | 294° |
| 2026-05-05 23:40 | 42.11990 | 115.55376 | 29960 ft | 415 kts | 294° |
| 2026-05-05 23:40 | 42.14731 | 115.48540 | 29959 ft | 414 kts | 294° |
| 2026-05-05 23:41 | 42.17465 | 115.41703 | 29966 ft | 414 kts | 293° |
| 2026-05-05 23:41 | 42.20192 | 115.34872 | 29956 ft | 413 kts | 293° |
| 2026-05-05 23:42 | 42.22275 | 115.27755 | 29961 ft | 405 kts | 280° |
| 2026-05-05 23:42 | 42.23099 | 115.20337 | 29961 ft | 404 kts | 273° |
| 2026-05-05 23:43 | 42.22734 | 115.12768 | 29976 ft | 405 kts | 266° |
| 2026-05-05 23:43 | 42.22175 | 115.05258 | 29990 ft | 405 kts | 266° |
| 2026-05-05 23:44 | 42.21624 | 114.97628 | 29936 ft | 407 kts | 266° |
| 2026-05-05 23:44 | 42.21085 | 114.90040 | 29935 ft | 407 kts | 266° |
| 2026-05-05 23:45 | 42.20546 | 114.82442 | 29950 ft | 407 kts | 266° |
| 2026-05-05 23:45 | 42.20003 | 114.74853 | 29956 ft | 407 kts | 266° |
| 2026-05-05 23:46 | 42.19455 | 114.67265 | 29956 ft | 407 kts | 266° |
| 2026-05-05 23:46 | 42.18904 | 114.59719 | 29961 ft | 407 kts | 266° |
| 2026-05-05 23:47 | 42.18342 | 114.52084 | 29967 ft | 406 kts | 266° |
| 2026-05-05 23:47 | 42.17779 | 114.44504 | 29973 ft | 406 kts | 266° |
| 2026-05-05 23:48 | 42.17216 | 114.36981 | 29982 ft | 406 kts | 266° |
| 2026-05-05 23:48 | 42.16643 | 114.29416 | 29972 ft | 405 kts | 265° |
| 2026-05-05 23:49 | 42.16067 | 114.21868 | 29974 ft | 405 kts | 265° |
| 2026-05-05 23:49 | 42.15487 | 114.14318 | 29970 ft | 406 kts | 265° |
| 2026-05-05 23:50 | 42.14995 | 114.07983 | 29964 ft | 406 kts | 265° |
| 2026-05-05 23:50 | 42.14403 | 114.00411 | 29973 ft | 406 kts | 265° |
| 2026-05-05 23:51 | 42.13806 | 113.92843 | 29980 ft | 406 kts | 265° |
| 2026-05-05 23:51 | 42.13204 | 113.85284 | 29980 ft | 405 kts | 265° |
| 2026-05-05 23:52 | 42.12603 | 113.77783 | 29979 ft | 405 kts | 265° |
| 2026-05-05 23:52 | 42.11995 | 113.70251 | 29979 ft | 405 kts | 265° |
| 2026-05-05 23:53 | 42.11378 | 113.62678 | 29978 ft | 403 kts | 265° |
| 2026-05-05 23:53 | 42.10764 | 113.55202 | 29983 ft | 402 kts | 265° |
| 2026-05-05 23:54 | 42.09966 | 113.47723 | 29982 ft | 405 kts | 260° |
| 2026-05-05 23:54 | 42.08547 | 113.40362 | 29995 ft | 407 kts | 258° |
| 2026-05-05 23:55 | 42.07149 | 113.32976 | 29990 ft | 407 kts | 258° |
| 2026-05-05 23:55 | 42.05746 | 113.25575 | 29985 ft | 408 kts | 258° |
| 2026-05-05 23:56 | 42.04337 | 113.18185 | 29985 ft | 408 kts | 258° |
| 2026-05-05 23:56 | 42.02925 | 113.10806 | 29955 ft | 407 kts | 258° |
| 2026-05-05 23:57 | 42.01514 | 113.03434 | 29983 ft | 407 kts | 258° |
| 2026-05-05 23:57 | 42.00106 | 112.96094 | 29986 ft | 406 kts | 258° |
| 2026-05-05 23:58 | 41.98691 | 112.88751 | 29986 ft | 406 kts | 258° |
| 2026-05-05 23:58 | 41.97272 | 112.81415 | 29995 ft | 406 kts | 258° |
| 2026-05-05 23:59 | 41.95846 | 112.74067 | 29999 ft | 405 kts | 258° |
| 2026-05-05 23:59 | 41.95010 | 112.66650 | 30004 ft | 401 kts | 269° |
| 2026-05-06 00:00 | 41.95244 | 112.59182 | 29996 ft | 400 kts | 275° |
| 2026-05-06 00:00 | 41.96517 | 112.51890 | 30002 ft | 403 kts | 282° |
| 2026-05-06 00:01 | 41.98031 | 112.44644 | 30007 ft | 403 kts | 282° |
| 2026-05-06 00:01 | 41.99521 | 112.37382 | 30002 ft | 402 kts | 282° |
| 2026-05-06 00:02 | 42.00981 | 112.30175 | 30003 ft | 402 kts | 282° |
| 2026-05-06 00:02 | 42.02439 | 112.22925 | 30001 ft | 402 kts | 282° |
| 2026-05-06 00:03 | 42.03894 | 112.15660 | 30009 ft | 402 kts | 282° |
| 2026-05-06 00:03 | 42.05340 | 112.08415 | 30017 ft | 401 kts | 282° |
| 2026-05-06 00:04 | 42.06784 | 112.01154 | 30005 ft | 401 kts | 282° |
| 2026-05-06 00:04 | 42.08221 | 111.93904 | 30007 ft | 400 kts | 282° |
| 2026-05-06 00:05 | 42.10356 | 111.83081 | 30008 ft | 400 kts | 282° |
| 2026-05-06 00:06 | 42.11775 | 111.75850 | 30023 ft | 400 kts | 282° |
| 2026-05-06 00:06 | 42.13193 | 111.68603 | 30004 ft | 400 kts | 282° |
| 2026-05-06 00:07 | 42.14608 | 111.61347 | 30012 ft | 401 kts | 281° |
| 2026-05-06 00:07 | 42.16020 | 111.54077 | 30008 ft | 401 kts | 282° |
| 2026-05-06 00:08 | 42.17426 | 111.46813 | 30015 ft | 401 kts | 281° |
| 2026-05-06 00:08 | 42.18828 | 111.39540 | 30021 ft | 401 kts | 281° |
| 2026-05-06 00:09 | 42.19740 | 111.32163 | 29987 ft | 399 kts | 273° |
| 2026-05-06 00:09 | 42.19889 | 111.24695 | 30022 ft | 398 kts | 269° |
| 2026-05-06 00:10 | 42.19256 | 111.17259 | 30020 ft | 400 kts | 263° |
| 2026-05-06 00:10 | 42.18434 | 111.09839 | 30036 ft | 401 kts | 263° |
| 2026-05-06 00:11 | 42.17613 | 111.02389 | 30025 ft | 402 kts | 263° |
| 2026-05-06 00:11 | 42.16804 | 110.94985 | 30023 ft | 402 kts | 263° |
| 2026-05-06 00:12 | 42.15990 | 110.87538 | 30031 ft | 402 kts | 263° |
| 2026-05-06 00:12 | 42.15174 | 110.80102 | 30034 ft | 401 kts | 263° |
| 2026-05-06 00:13 | 42.14352 | 110.72657 | 30032 ft | 401 kts | 263° |
| 2026-05-06 00:13 | 42.13527 | 110.65223 | 30034 ft | 401 kts | 263° |
| 2026-05-06 00:14 | 42.12697 | 110.57797 | 30031 ft | 401 kts | 263° |
| 2026-05-06 00:14 | 42.11861 | 110.50362 | 30038 ft | 401 kts | 263° |
| 2026-05-06 00:15 | 42.11022 | 110.42937 | 30053 ft | 402 kts | 263° |
| 2026-05-06 00:15 | 42.10175 | 110.35494 | 30043 ft | 403 kts | 263° |
| 2026-05-06 00:16 | 42.09321 | 110.28028 | 30056 ft | 404 kts | 263° |
| 2026-05-06 00:16 | 42.08460 | 110.20555 | 30049 ft | 404 kts | 263° |
| 2026-05-06 00:17 | 42.07596 | 110.13092 | 30058 ft | 404 kts | 262° |
| 2026-05-06 00:17 | 42.06728 | 110.05632 | 30066 ft | 403 kts | 262° |
| 2026-05-06 00:18 | 42.05854 | 109.98179 | 30064 ft | 403 kts | 262° |
| 2026-05-06 00:18 | 42.04975 | 109.90727 | 30062 ft | 403 kts | 262° |
| 2026-05-06 00:19 | 42.04092 | 109.83272 | 30071 ft | 404 kts | 262° |
| 2026-05-06 00:19 | 42.03201 | 109.75792 | 30082 ft | 405 kts | 262° |